createdAt,value
2022-08-19T00:02:00.881Z,26.00
2022-08-19T00:04:37.699Z,25.90
2022-08-19T00:07:09.195Z,25.90
2022-08-19T00:09:37.612Z,25.60
2022-08-19T00:12:06.914Z,25.60
2022-08-19T00:14:35.545Z,25.60
2022-08-19T00:17:04.457Z,25.50
2022-08-19T00:19:33.411Z,25.30
2022-08-19T00:22:03.367Z,25.30
2022-08-19T00:24:33.548Z,25.40
2022-08-19T00:27:24.875Z,25.50
2022-08-19T00:29:52.608Z,25.60
2022-08-19T00:32:21.937Z,25.70
2022-08-19T00:34:50.415Z,25.80
2022-08-19T00:37:19.268Z,25.90
2022-08-19T00:39:49.050Z,25.90
2022-08-19T00:42:17.658Z,25.80
2022-08-19T00:44:46.414Z,25.90
2022-08-19T00:47:15.367Z,25.90
2022-08-19T00:49:51.673Z,25.90
2022-08-19T00:52:25.417Z,25.90
2022-08-19T00:54:55.289Z,26.00
2022-08-19T00:57:31.300Z,26.00
2022-08-19T01:00:03.292Z,26.10
2022-08-19T01:02:34.497Z,26.00
2022-08-19T01:05:08.417Z,26.10
2022-08-19T01:07:38.266Z,26.10
2022-08-19T01:10:11.678Z,26.10
2022-08-19T01:12:41.597Z,26.10
2022-08-19T01:15:13.705Z,26.20
2022-08-19T01:17:43.748Z,26.20
2022-08-19T01:20:15.966Z,26.20
2022-08-19T01:22:49.823Z,26.20
2022-08-19T01:25:26.211Z,26.20
2022-08-19T01:27:55.234Z,26.30
2022-08-19T01:30:32.231Z,26.20
2022-08-19T01:33:01.481Z,26.20
2022-08-19T01:35:32.457Z,26.20
2022-08-19T01:38:08.683Z,26.20
2022-08-19T01:40:43.134Z,26.20
2022-08-19T01:43:11.901Z,26.30
2022-08-19T01:45:41.139Z,26.30
2022-08-19T01:48:11.602Z,26.30
2022-08-19T01:50:41.118Z,26.30
2022-08-19T01:53:14.100Z,26.30
2022-08-19T01:55:45.287Z,26.40
2022-08-19T01:58:16.947Z,26.30
2022-08-19T02:00:46.167Z,26.30
2022-08-19T02:03:14.959Z,26.20
2022-08-19T02:05:45.133Z,26.20
2022-08-19T02:08:14.957Z,26.20
2022-08-19T02:10:45.299Z,26.20
2022-08-19T02:13:15.425Z,26.20
2022-08-19T02:15:44.183Z,26.10
2022-08-19T02:18:12.502Z,26.20
2022-08-19T02:20:43.820Z,26.10
2022-08-19T02:23:16.154Z,26.00
2022-08-19T02:25:45.296Z,26.10
2022-08-19T02:28:18.324Z,26.10
2022-08-19T02:30:50.296Z,26.00
2022-08-19T02:33:19.397Z,26.00
2022-08-19T02:35:48.817Z,26.00
2022-08-19T02:38:26.458Z,26.00
2022-08-19T02:40:57.110Z,26.00
2022-08-19T02:43:28.901Z,26.00
2022-08-19T02:45:57.597Z,26.00
2022-08-19T02:48:27.272Z,26.10
2022-08-19T02:50:57.056Z,26.00
2022-08-19T02:53:29.653Z,26.00
2022-08-19T02:55:58.002Z,26.00
2022-08-19T02:58:27.766Z,26.00
2022-08-19T03:00:58.135Z,26.00
2022-08-19T03:03:26.836Z,26.00
2022-08-19T03:06:07.109Z,26.00
2022-08-19T03:08:37.853Z,26.00
2022-08-19T03:11:06.790Z,26.00
2022-08-19T03:13:35.119Z,26.00
2022-08-19T03:16:07.876Z,26.00
2022-08-19T03:18:36.307Z,26.00
2022-08-19T03:21:05.728Z,26.10
2022-08-19T03:23:34.057Z,26.00
2022-08-19T03:26:16.699Z,26.10
2022-08-19T03:28:58.391Z,26.10
2022-08-19T03:31:44.283Z,26.10
2022-08-19T03:34:20.707Z,26.00
2022-08-19T03:36:49.819Z,26.00
2022-08-19T03:39:18.869Z,26.00
2022-08-19T03:42:32.401Z,26.00
2022-08-19T03:44:43.242Z,26.00
2022-08-19T03:47:16.614Z,25.90
2022-08-19T03:49:45.808Z,25.90
2022-08-19T03:52:14.371Z,25.90
2022-08-19T03:54:42.942Z,25.90
2022-08-19T03:57:12.613Z,25.90
2022-08-19T03:59:41.316Z,25.90
2022-08-19T04:02:13.751Z,25.90
2022-08-19T04:04:46.031Z,25.90
2022-08-19T04:07:17.296Z,25.90
2022-08-19T04:09:45.895Z,25.90
2022-08-19T04:12:15.890Z,25.90
2022-08-19T04:14:44.132Z,25.90
2022-08-19T04:17:13.961Z,25.80
2022-08-19T04:19:43.868Z,25.80
2022-08-19T04:22:12.916Z,25.80
2022-08-19T04:24:41.386Z,25.80
2022-08-19T04:27:09.769Z,25.80
2022-08-19T04:29:40.413Z,25.80
2022-08-19T04:32:09.934Z,25.80
2022-08-19T04:35:02.002Z,25.70
2022-08-19T04:37:35.538Z,25.80
2022-08-19T04:40:26.310Z,25.70
2022-08-19T04:42:55.360Z,25.70
2022-08-19T04:45:25.248Z,25.70
2022-08-19T04:48:26.268Z,25.70
2022-08-19T04:50:47.825Z,25.70
2022-08-19T04:53:16.270Z,25.70
2022-08-19T04:55:45.046Z,25.70
2022-08-19T04:58:13.290Z,25.60
2022-08-19T05:00:43.137Z,25.70
2022-08-19T05:03:11.912Z,25.70
2022-08-19T05:05:44.702Z,25.70
2022-08-19T05:08:31.354Z,25.70
2022-08-19T05:11:00.652Z,25.60
2022-08-19T05:13:29.241Z,25.60
2022-08-19T05:16:01.300Z,25.70
2022-08-19T05:18:47.369Z,25.80
2022-08-19T05:21:37.058Z,25.90
2022-08-19T05:24:09.856Z,25.90
2022-08-19T05:26:38.934Z,25.90
2022-08-19T05:29:08.333Z,25.90
2022-08-19T05:31:42.012Z,26.00
2022-08-19T05:34:20.495Z,26.20
2022-08-19T05:36:49.984Z,26.30
2022-08-19T05:39:21.867Z,26.30
2022-08-19T05:41:55.145Z,26.30
2022-08-19T05:44:23.963Z,26.30
2022-08-19T05:46:54.877Z,26.30
2022-08-19T05:49:26.570Z,26.30
2022-08-19T05:51:57.399Z,26.20
2022-08-19T05:54:27.023Z,26.20
2022-08-19T05:56:56.571Z,26.10
2022-08-19T05:59:25.387Z,26.00
2022-08-19T06:01:57.952Z,26.00
2022-08-19T06:04:26.508Z,25.90
2022-08-19T06:06:57.259Z,25.90
2022-08-19T06:09:25.835Z,25.90
2022-08-19T06:12:00.615Z,25.90
2022-08-19T06:14:35.515Z,25.80
2022-08-19T06:17:10.491Z,25.90
2022-08-19T06:19:40.791Z,26.00
2022-08-19T06:22:11.312Z,26.00
2022-08-19T06:24:39.701Z,26.10
2022-08-19T06:27:08.199Z,26.20
2022-08-19T06:29:37.016Z,26.10
2022-08-19T06:32:06.679Z,26.10
2022-08-19T06:34:37.140Z,26.10
2022-08-19T06:37:06.693Z,26.10
2022-08-19T06:39:37.571Z,26.10
2022-08-19T06:42:11.100Z,26.10
2022-08-19T06:44:43.177Z,26.10
2022-08-19T06:47:24.037Z,26.10
2022-08-19T06:50:03.742Z,26.00
2022-08-19T06:52:34.046Z,26.00
2022-08-19T06:55:06.251Z,26.00
2022-08-19T06:57:35.390Z,26.00
2022-08-19T07:00:06.435Z,26.00
2022-08-19T07:02:38.663Z,26.10
2022-08-19T07:05:10.025Z,26.10
2022-08-19T07:07:39.305Z,26.20
2022-08-19T07:10:11.844Z,26.20
2022-08-19T07:12:41.817Z,26.20
2022-08-19T07:15:12.042Z,26.20
2022-08-19T07:17:42.214Z,26.30
2022-08-19T07:20:13.806Z,26.30
2022-08-19T07:22:42.583Z,26.30
2022-08-19T07:25:11.968Z,26.30
2022-08-19T07:27:40.303Z,26.30
2022-08-19T07:30:12.966Z,26.30
2022-08-19T07:32:41.701Z,26.30
2022-08-19T07:35:12.263Z,26.30
2022-08-19T07:37:45.116Z,26.30
2022-08-19T07:40:14.453Z,26.30
2022-08-19T07:42:44.215Z,26.30
2022-08-19T07:45:12.932Z,26.30
2022-08-19T07:47:47.521Z,26.40
2022-08-19T07:50:22.930Z,26.40
2022-08-19T07:52:52.679Z,26.40
2022-08-19T07:55:41.892Z,26.40
2022-08-19T07:58:15.218Z,26.50
2022-08-19T08:00:44.307Z,26.50
2022-08-19T08:03:13.941Z,26.50
2022-08-19T08:06:01.701Z,26.60
2022-08-19T08:08:48.547Z,26.60
2022-08-19T08:11:19.979Z,26.50
2022-08-19T08:14:00.723Z,26.60
2022-08-19T08:16:32.183Z,26.60
2022-08-19T08:19:01.370Z,26.70
2022-08-19T08:21:31.692Z,26.60
2022-08-19T08:26:29.242Z,26.70
2022-08-19T08:28:57.530Z,26.80
2022-08-19T08:31:26.228Z,26.80
2022-08-19T08:33:54.724Z,26.80
2022-08-19T08:36:23.261Z,26.80
2022-08-19T08:41:35.583Z,26.90
2022-08-19T08:44:06.996Z,26.90
2022-08-19T08:46:41.942Z,26.90
2022-08-19T08:49:25.522Z,26.90
2022-08-19T08:52:01.945Z,26.90
2022-08-19T08:54:39.509Z,26.90
2022-08-19T08:57:15.899Z,26.90
2022-08-19T08:59:51.715Z,26.90
2022-08-19T09:02:20.650Z,26.80
2022-08-19T09:04:49.455Z,26.80
2022-08-19T09:07:38.047Z,26.80
2022-08-19T09:10:18.347Z,26.80
2022-08-19T09:13:00.513Z,26.80
2022-08-19T09:15:36.734Z,26.90
2022-08-19T09:18:07.364Z,26.90
2022-08-19T09:20:35.916Z,26.80
2022-08-19T09:23:10.627Z,26.90
2022-08-19T09:25:41.128Z,26.90
2022-08-19T09:28:20.571Z,26.90
2022-08-19T09:30:53.214Z,26.90
2022-08-19T09:33:21.667Z,26.90
2022-08-19T09:35:53.687Z,26.90
2022-08-19T09:38:22.545Z,26.90
2022-08-19T09:40:52.337Z,26.90
2022-08-19T09:43:33.222Z,26.80
2022-08-19T09:46:02.553Z,26.80
2022-08-19T09:48:30.963Z,26.80
2022-08-19T09:51:06.289Z,26.80
2022-08-19T09:53:34.613Z,26.80
2022-08-19T09:56:08.465Z,26.80
2022-08-19T09:58:38.653Z,26.80
2022-08-19T10:01:08.915Z,26.80
2022-08-19T10:03:38.734Z,26.80
2022-08-19T10:06:14.958Z,26.80
2022-08-19T10:08:50.059Z,26.80
2022-08-19T10:11:27.399Z,26.80
2022-08-19T10:14:06.660Z,26.80
2022-08-19T10:16:37.154Z,26.80
2022-08-19T10:19:08.044Z,26.80
2022-08-19T10:21:36.457Z,26.80
2022-08-19T10:24:07.460Z,26.80
2022-08-19T10:26:46.011Z,26.80
2022-08-19T10:29:32.516Z,26.80
2022-08-19T10:32:02.906Z,26.80
2022-08-19T10:34:32.839Z,26.80
2022-08-19T10:37:02.202Z,26.80
2022-08-19T10:39:32.884Z,26.90
2022-08-19T10:42:14.165Z,26.90
2022-08-19T10:44:43.271Z,26.90
2022-08-19T10:47:17.481Z,26.90
2022-08-19T10:50:11.961Z,26.90
2022-08-19T10:52:50.028Z,26.90
2022-08-19T10:55:39.848Z,26.90
2022-08-19T10:58:16.197Z,26.90
2022-08-19T11:00:45.733Z,27.00
2022-08-19T11:03:14.498Z,27.00
2022-08-19T11:05:43.209Z,27.00
2022-08-19T11:08:22.550Z,27.00
2022-08-19T11:11:00.167Z,27.00
2022-08-19T11:13:30.265Z,27.00
2022-08-19T11:16:05.277Z,27.00
2022-08-19T11:18:38.256Z,27.00
2022-08-19T11:21:13.798Z,27.00
2022-08-19T11:23:42.495Z,26.90
2022-08-19T11:26:11.655Z,27.00
2022-08-19T11:28:42.496Z,27.00
2022-08-19T11:31:14.919Z,27.00
2022-08-19T11:33:47.821Z,27.00
2022-08-19T11:36:17.575Z,26.90
2022-08-19T11:38:49.362Z,27.00
2022-08-19T11:41:21.756Z,26.90
2022-08-19T11:43:53.898Z,26.90
2022-08-19T11:46:24.742Z,27.00
2022-08-19T11:48:53.479Z,27.00
2022-08-19T11:51:26.523Z,27.00
2022-08-19T11:53:56.284Z,27.00
2022-08-19T11:56:26.544Z,27.00
2022-08-19T11:58:57.952Z,27.00
2022-08-19T12:01:29.296Z,27.00
2022-08-19T12:03:59.594Z,27.00
2022-08-19T12:06:32.736Z,27.00
2022-08-19T12:09:08.382Z,27.00
2022-08-19T12:11:37.871Z,27.00
2022-08-19T12:14:09.168Z,27.00
2022-08-19T12:16:51.438Z,27.00
2022-08-19T12:19:22.663Z,27.10
2022-08-19T12:21:52.526Z,27.10
2022-08-19T12:24:24.418Z,27.10
2022-08-19T12:26:54.614Z,27.10
2022-08-19T12:29:31.091Z,27.20
2022-08-19T12:32:03.813Z,27.10
2022-08-19T12:34:33.924Z,27.20
2022-08-19T12:37:06.780Z,27.20
2022-08-19T12:39:39.619Z,27.20
2022-08-19T12:42:10.060Z,27.20
2022-08-19T12:44:42.731Z,27.30
2022-08-19T12:47:14.584Z,27.30
2022-08-19T12:49:54.569Z,27.30
2022-08-19T12:52:28.808Z,27.40
2022-08-19T12:54:59.221Z,27.40
2022-08-19T12:57:32.631Z,27.40
2022-08-19T13:00:12.480Z,27.50
2022-08-19T13:02:42.422Z,27.50
2022-08-19T13:05:14.978Z,27.50
2022-08-19T13:07:45.016Z,27.50
2022-08-19T13:10:18.657Z,27.50
2022-08-19T13:12:49.351Z,27.50
2022-08-19T13:15:24.155Z,27.50
2022-08-19T13:17:57.107Z,27.50
2022-08-19T13:20:26.429Z,27.40
2022-08-19T13:22:55.708Z,27.40
2022-08-19T13:25:24.098Z,27.40
2022-08-19T13:27:53.443Z,27.40
2022-08-19T13:30:41.349Z,27.50
2022-08-19T13:33:16.217Z,27.50
2022-08-19T13:35:49.847Z,27.50
2022-08-19T13:38:21.435Z,27.50
2022-08-19T13:40:54.454Z,27.40
2022-08-19T13:43:25.332Z,27.40
2022-08-19T13:45:57.701Z,27.40
2022-08-19T13:48:27.920Z,27.20
2022-08-19T13:50:57.676Z,26.90
2022-08-19T13:53:25.985Z,26.60
2022-08-19T13:55:54.963Z,26.40
2022-08-19T13:58:23.938Z,26.40
2022-08-19T14:00:52.256Z,26.20
2022-08-19T14:03:22.547Z,26.40
2022-08-19T14:05:50.941Z,26.60
2022-08-19T14:08:20.126Z,26.70
2022-08-19T14:10:51.693Z,26.80
2022-08-19T14:13:24.419Z,26.90
2022-08-19T14:15:53.038Z,26.90
2022-08-19T14:18:22.819Z,26.90
2022-08-19T14:20:56.405Z,27.00
2022-08-19T14:23:24.624Z,27.00
2022-08-19T14:25:52.885Z,26.90
2022-08-19T14:28:21.477Z,27.00
2022-08-19T14:30:56.822Z,27.00
2022-08-19T14:33:28.415Z,27.00
2022-08-19T14:35:59.504Z,27.00
2022-08-19T14:38:32.423Z,27.00
2022-08-19T14:41:12.253Z,27.00
2022-08-19T14:43:41.561Z,27.00
2022-08-19T14:46:11.294Z,27.00
2022-08-19T14:48:41.433Z,27.10
2022-08-19T14:51:10.798Z,27.00
2022-08-19T14:53:39.656Z,27.00
2022-08-19T14:56:12.677Z,27.00
2022-08-19T14:58:42.637Z,27.00
2022-08-19T15:01:13.197Z,27.00
2022-08-19T15:03:43.710Z,27.00
2022-08-19T15:06:12.612Z,27.00
2022-08-19T15:08:44.067Z,27.10
2022-08-19T15:11:21.943Z,27.00
2022-08-19T15:13:51.324Z,27.10
2022-08-19T15:16:22.753Z,27.10
2022-08-19T15:18:57.101Z,27.10
2022-08-19T15:21:27.703Z,27.10
2022-08-19T15:23:57.994Z,27.10
2022-08-19T15:26:27.396Z,27.10
2022-08-19T15:28:55.996Z,27.10
2022-08-19T15:31:25.253Z,27.10
2022-08-19T15:33:59.284Z,27.20
2022-08-19T15:36:28.458Z,27.20
2022-08-19T15:38:57.243Z,27.20
2022-08-19T15:41:29.415Z,27.20
2022-08-19T15:44:01.070Z,27.20
2022-08-19T15:46:32.415Z,27.20
2022-08-19T15:49:03.456Z,27.20
2022-08-19T15:51:36.091Z,27.20
2022-08-19T15:54:05.821Z,27.20
2022-08-19T15:57:06.892Z,27.20
2022-08-19T15:59:54.319Z,27.20
2022-08-19T16:02:43.142Z,27.20
2022-08-19T16:05:39.752Z,27.10
2022-08-19T16:08:09.096Z,26.90
2022-08-19T16:10:38.419Z,26.90
2022-08-19T16:13:07.510Z,26.80
2022-08-19T16:15:35.826Z,26.60
2022-08-19T16:18:04.829Z,26.50
2022-08-19T16:20:35.609Z,26.60
2022-08-19T16:23:05.587Z,26.40
2022-08-19T16:25:34.352Z,26.40
2022-08-19T16:28:07.135Z,26.30
2022-08-19T16:30:39.082Z,26.20
2022-08-19T16:33:08.538Z,26.20
2022-08-19T16:35:38.883Z,26.30
2022-08-19T16:38:07.979Z,26.20
2022-08-19T16:40:38.455Z,26.30
2022-08-19T16:43:09.977Z,26.40
2022-08-19T16:45:38.396Z,26.40
2022-08-19T16:48:12.369Z,26.50
2022-08-19T16:50:49.934Z,26.50
2022-08-19T16:53:21.929Z,26.50
2022-08-19T16:55:53.996Z,26.50
2022-08-19T16:58:29.179Z,26.50
2022-08-19T17:01:03.797Z,26.50
2022-08-19T17:03:36.391Z,26.60
2022-08-19T17:06:15.900Z,26.60
2022-08-19T17:08:50.395Z,26.50
2022-08-19T17:11:21.133Z,26.50
2022-08-19T17:13:50.780Z,26.40
2022-08-19T17:16:24.756Z,26.40
2022-08-19T17:18:53.683Z,26.40
2022-08-19T17:21:28.615Z,26.30
2022-08-19T17:23:58.017Z,26.30
2022-08-19T17:26:27.686Z,26.30
2022-08-19T17:28:59.512Z,26.30
2022-08-19T17:31:31.588Z,26.30
2022-08-19T17:34:03.565Z,26.30
2022-08-19T17:36:35.159Z,26.00
2022-08-19T17:39:07.824Z,25.80
2022-08-19T17:41:37.004Z,25.80
2022-08-19T17:44:06.744Z,25.90
2022-08-19T17:46:37.481Z,25.90
2022-08-19T17:49:06.933Z,25.90
2022-08-19T17:51:47.190Z,26.00
2022-08-19T17:54:19.942Z,26.00
2022-08-19T17:56:49.058Z,26.00
2022-08-19T17:59:22.121Z,25.90
2022-08-19T18:01:54.748Z,25.90
2022-08-19T18:04:25.469Z,26.00
2022-08-19T18:06:56.133Z,26.00
2022-08-19T18:09:27.430Z,26.00
2022-08-19T18:11:58.784Z,26.00
2022-08-19T18:14:34.093Z,26.00
2022-08-19T18:17:10.008Z,26.10
2022-08-19T18:19:42.944Z,26.10
2022-08-19T18:22:24.257Z,26.10
2022-08-19T18:24:53.482Z,26.10
2022-08-19T18:27:22.495Z,26.20
2022-08-19T18:29:51.171Z,26.10
2022-08-19T18:32:23.765Z,26.20
2022-08-19T18:34:54.218Z,26.20
2022-08-19T18:37:26.768Z,26.20
2022-08-19T18:40:13.141Z,26.20
2022-08-19T18:43:02.368Z,26.30
2022-08-19T18:45:49.473Z,26.40
2022-08-19T18:48:35.493Z,26.40
2022-08-19T18:51:04.656Z,26.30
2022-08-19T18:53:39.614Z,26.30
2022-08-19T18:56:14.703Z,26.30
2022-08-19T18:58:44.228Z,26.30
2022-08-19T19:01:19.787Z,26.30
2022-08-19T19:04:00.296Z,26.30
2022-08-19T19:06:40.663Z,26.30
2022-08-19T19:09:14.003Z,26.30
2022-08-19T19:11:48.465Z,26.30
2022-08-19T19:14:46.046Z,26.30
2022-08-19T19:17:15.530Z,26.30
2022-08-19T19:19:45.852Z,26.30
2022-08-19T19:22:17.961Z,26.30
2022-08-19T19:24:51.187Z,26.30
2022-08-19T19:27:21.286Z,26.20
2022-08-19T19:29:52.198Z,26.20
2022-08-19T19:32:27.542Z,26.20
2022-08-19T19:34:56.313Z,26.20
2022-08-19T19:37:24.516Z,26.20
2022-08-19T19:39:54.337Z,26.20
2022-08-19T19:42:24.738Z,26.20
2022-08-19T19:44:55.713Z,26.20
2022-08-19T19:47:28.441Z,26.20
2022-08-19T19:50:14.356Z,26.20
2022-08-19T19:52:46.601Z,26.20
2022-08-19T19:55:18.797Z,26.20
2022-08-19T19:57:47.662Z,26.20
2022-08-19T20:00:19.227Z,26.20
2022-08-19T20:02:50.342Z,26.20
2022-08-19T20:05:21.228Z,26.30
2022-08-19T20:08:09.463Z,26.30
2022-08-19T20:10:40.241Z,26.30
2022-08-19T20:13:09.479Z,26.30
2022-08-19T20:15:42.556Z,26.30
2022-08-19T20:18:13.459Z,26.30
2022-08-19T20:20:42.344Z,26.30
2022-08-19T20:23:11.188Z,26.20
2022-08-19T20:25:41.005Z,26.20
2022-08-19T20:28:12.327Z,26.20
2022-08-19T20:30:46.543Z,26.10
2022-08-19T20:33:15.260Z,26.10
2022-08-19T20:35:45.009Z,26.10
2022-08-19T20:38:13.632Z,26.10
2022-08-19T20:40:43.451Z,26.10
2022-08-19T20:43:14.267Z,26.10
2022-08-19T20:45:42.671Z,26.10
2022-08-19T20:48:13.584Z,26.00
2022-08-19T20:50:42.319Z,26.00
2022-08-19T20:53:13.427Z,26.00
2022-08-19T20:55:45.533Z,26.00
2022-08-19T20:58:14.554Z,26.00
2022-08-19T21:00:46.072Z,26.00
2022-08-19T21:03:19.072Z,26.00
2022-08-19T21:05:49.433Z,25.90
2022-08-19T21:08:20.108Z,26.00
2022-08-19T21:10:51.776Z,25.90
2022-08-19T21:13:22.377Z,25.90
2022-08-19T21:15:51.504Z,25.90
2022-08-19T21:18:25.643Z,25.90
2022-08-19T21:20:54.961Z,25.90
2022-08-19T21:23:26.688Z,26.00
2022-08-19T21:25:58.459Z,26.00
2022-08-19T21:28:34.543Z,26.10
2022-08-19T21:31:07.311Z,26.10
2022-08-19T21:33:35.963Z,26.20
2022-08-19T21:36:05.486Z,26.20
2022-08-19T21:38:34.501Z,26.30
2022-08-19T21:41:06.592Z,26.30
2022-08-19T21:43:37.644Z,26.40
2022-08-19T21:46:07.904Z,26.40
2022-08-19T21:48:37.303Z,26.30
2022-08-19T21:51:06.097Z,26.20
2022-08-19T21:53:34.889Z,26.20
2022-08-19T21:56:06.385Z,26.10
2022-08-19T21:58:36.429Z,26.10
2022-08-19T22:01:08.256Z,26.10
2022-08-19T22:03:39.086Z,26.10
2022-08-19T22:06:08.368Z,26.20
2022-08-19T22:08:37.020Z,26.20
2022-08-19T22:11:06.715Z,26.30
2022-08-19T22:13:40.128Z,26.40
2022-08-19T22:16:09.954Z,26.40
2022-08-19T22:18:38.750Z,26.40
2022-08-19T22:21:11.727Z,26.40
2022-08-19T22:23:41.781Z,26.40
2022-08-19T22:26:12.316Z,26.30
2022-08-19T22:28:42.771Z,26.30
2022-08-19T22:31:12.070Z,26.20
2022-08-19T22:33:41.564Z,26.20
2022-08-19T22:36:10.236Z,26.10
2022-08-19T22:38:38.876Z,26.20
2022-08-19T22:41:08.084Z,26.20
2022-08-19T22:43:38.341Z,26.10
2022-08-19T22:46:17.239Z,26.10
2022-08-19T22:48:47.620Z,26.10
2022-08-19T22:51:33.731Z,26.10
2022-08-19T22:54:03.113Z,26.10
2022-08-19T22:56:31.656Z,26.10
2022-08-19T22:59:03.184Z,26.00
2022-08-19T23:01:32.110Z,25.90
2022-08-19T23:04:04.100Z,26.00
2022-08-19T23:06:35.153Z,26.00
2022-08-19T23:09:08.275Z,26.00
2022-08-19T23:11:41.948Z,26.00
2022-08-19T23:14:13.656Z,26.00
2022-08-19T23:16:42.897Z,26.00
2022-08-19T23:19:12.868Z,26.00
2022-08-19T23:21:42.233Z,25.90
2022-08-19T23:24:12.065Z,25.90
2022-08-19T23:27:02.260Z,25.90
2022-08-19T23:29:49.342Z,25.90
2022-08-19T23:32:18.513Z,25.90
2022-08-19T23:34:47.199Z,25.90
2022-08-19T23:37:16.074Z,25.90
2022-08-19T23:39:45.362Z,25.90
2022-08-19T23:42:14.314Z,25.90
2022-08-19T23:44:51.331Z,25.90
2022-08-19T23:47:21.889Z,25.80
2022-08-19T23:49:50.876Z,25.90
2022-08-19T23:52:19.584Z,25.90
2022-08-19T23:54:47.942Z,25.90
2022-08-19T23:57:16.462Z,25.80
2022-08-19T23:59:46.282Z,25.80
